Time;durP1;ratioP1;P1;durP2;ratioP2;P2;SDS_P1;SDS_P2;PMS_P1;PMS_P2;Temp;Humidity;BMP_temperature;BMP_pressure;BME280_temperature;BME280_humidity;BME280_pressure;Samples;Min_cycle;Max_cycle;Signal;HPM_P1;HPM_P2
2023/05/16 00:02:18;;;;;;;5.38;1.40;;;;;;;9.46;78.88;101787.59;5028447;28;20030;-77
2023/05/16 00:04:44;;;;;;;5.28;1.35;;;;;;;9.46;78.70;101774.63;5030008;28;20064;-77
2023/05/16 00:07:09;;;;;;;5.68;1.45;;;;;;;9.49;78.28;101787.59;5027376;28;20063;-77
2023/05/16 00:09:35;;;;;;;7.05;1.40;;;;;;;9.48;78.72;101785.84;5030401;28;20099;-77
2023/05/16 00:12:00;;;;;;;5.53;1.30;;;;;;;9.45;78.38;101785.88;5029175;28;20068;-77
2023/05/16 00:14:26;;;;;;;4.82;1.30;;;;;;;9.46;77.97;101787.59;5031463;28;20036;-77
2023/05/16 00:16:52;;;;;;;6.00;1.35;;;;;;;9.47;78.20;101789.31;5030013;28;20376;-77
2023/05/16 00:19:19;;;;;;;7.65;1.60;;;;;;;9.48;78.35;101795.41;5028408;28;20598;-77
2023/05/16 00:21:44;;;;;;;6.63;1.60;;;;;;;9.48;78.59;101788.47;5031314;28;20112;-77
2023/05/16 00:24:09;;;;;;;9.90;1.60;;;;;;;9.48;77.98;101790.22;5028970;28;20154;-77
2023/05/16 00:26:35;;;;;;;6.00;1.50;;;;;;;9.47;78.76;101788.47;5029850;28;20037;-77
2023/05/16 00:29:01;;;;;;;7.03;1.55;;;;;;;9.50;78.57;101799.72;5029150;28;20029;-77
2023/05/16 00:31:26;;;;;;;6.65;1.30;;;;;;;9.49;79.40;101787.59;5030193;28;20026;-77
2023/05/16 00:33:51;;;;;;;7.25;1.60;;;;;;;9.49;79.57;101792.78;5027534;28;20033;-78
2023/05/16 00:36:17;;;;;;;7.97;1.65;;;;;;;9.48;80.39;101790.22;5029302;28;20117;-77
2023/05/16 00:38:42;;;;;;;10.07;1.60;;;;;;;9.47;80.08;101791.94;5028653;28;20030;-77
2023/05/16 00:41:07;;;;;;;6.43;1.40;;;;;;;9.44;80.07;101791.94;5027017;28;20184;-77
2023/05/16 00:43:32;;;;;;;8.75;2.00;;;;;;;9.41;80.01;101790.22;5027817;28;20049;-77
2023/05/16 00:45:59;;;;;;;11.13;1.40;;;;;;;9.39;79.64;101789.38;5028337;28;20435;-77
2023/05/16 00:48:24;;;;;;;9.65;1.88;;;;;;;9.36;79.54;101791.97;5029364;28;20029;-77
2023/05/16 00:50:51;;;;;;;5.93;1.38;;;;;;;9.31;79.57;101788.53;5028564;28;20184;-77
2023/05/16 00:53:17;;;;;;;7.35;1.63;;;;;;;9.27;79.64;101794.63;5028190;28;20079;-77
2023/05/16 00:55:43;;;;;;;10.55;1.50;;;;;;;9.20;79.44;101791.22;5031085;28;20116;-77
2023/05/16 00:58:10;;;;;;;7.45;1.35;;;;;;;9.14;79.56;101791.22;5032816;28;20493;-77
2023/05/16 01:00:36;;;;;;;7.70;1.23;;;;;;;9.08;79.58;101791.25;5031832;28;20041;-77
2023/05/16 01:03:04;;;;;;;8.10;1.20;;;;;;;9.03;79.46;101790.41;5032343;28;20028;-77
2023/05/16 01:05:30;;;;;;;8.32;1.30;;;;;;;8.97;79.63;101793.88;5032772;28;20021;-77
2023/05/16 01:07:56;;;;;;;7.20;1.50;;;;;;;8.92;79.81;101800.84;5032042;28;20380;-77
2023/05/16 01:10:21;;;;;;;9.68;1.48;;;;;;;8.86;80.19;101801.72;5034318;28;20026;-77
2023/05/16 01:13:11;;;;;;;8.38;1.30;;;;;;;8.84;80.04;101800.00;5032374;28;20029;-77
2023/05/16 01:16:04;;;;;;;6.90;1.30;;;;;;;8.79;79.86;101800.88;5030453;28;20113;-78
2023/05/16 01:18:50;;;;;;;6.40;1.20;;;;;;;8.74;79.74;101802.63;5032406;28;20193;-77
2023/05/16 01:21:22;;;;;;;9.45;1.20;;;;;;;8.68;80.02;101810.41;5031405;28;20099;-77
2023/05/16 01:23:50;;;;;;;;;;;;;;;8.72;79.36;101816.44;5030704;28;20112;-78
2023/05/16 01:26:26;;;;;;;8.23;1.20;;;;;;;8.66;80.00;101814.72;5028095;28;19923;-77
2023/05/16 01:28:51;;;;;;;6.95;1.42;;;;;;;8.63;79.87;101815.63;5028518;28;20037;-77
2023/05/16 01:31:17;;;;;;;9.60;1.55;;;;;;;8.61;80.11;101812.16;5026284;28;20040;-77
2023/05/16 01:33:42;;;;;;;6.93;1.30;;;;;;;8.60;79.76;101807.81;5027575;28;20064;-77
2023/05/16 01:36:20;;;;;;;4.80;0.85;;;;;;;8.59;79.56;101803.50;5026499;28;20029;-77
2023/05/16 01:39:25;;;;;;;11.88;1.50;;;;;;;8.59;79.29;101805.25;5025376;28;20399;-77
2023/05/16 01:42:05;;;;;;;7.72;1.00;;;;;;;8.54;79.36;101805.22;4967455;28;20042;-77
2023/05/16 01:44:40;;;;;;;6.07;1.27;;;;;;;8.49;79.23;101807.84;5021622;28;20107;-77
2023/05/16 01:47:10;;;;;;;6.90;1.27;;;;;;;8.45;79.16;101818.19;5027723;28;20029;-77
2023/05/16 01:49:43;;;;;;;6.57;1.10;;;;;;;8.42;79.14;101818.19;5027339;28;20072;-77
2023/05/16 01:52:18;;;;;;;7.30;1.23;;;;;;;8.33;79.32;101814.75;5027174;28;20512;-77
2023/05/16 01:54:46;;;;;;;8.88;1.23;;;;;;;8.32;79.09;101819.94;5026666;28;20032;-77
2023/05/16 01:57:12;;;;;;;8.73;1.30;;;;;;;8.26;78.86;101825.13;5027866;28;20472;-77
2023/05/16 01:59:39;;;;;;;8.35;1.38;;;;;;;8.20;78.87;101820.78;5022946;28;20028;-77
2023/05/16 02:02:04;;;;;;;8.85;1.35;;;;;;;8.15;78.86;101827.72;5025668;28;20026;-77
2023/05/16 02:04:30;;;;;;;7.45;1.00;;;;;;;8.11;78.87;101820.81;5027585;28;20071;-77
2023/05/16 02:06:55;;;;;;;6.88;1.20;;;;;;;8.06;79.15;101823.41;5025727;28;20029;-77
2023/05/16 02:09:21;;;;;;;5.95;1.00;;;;;;;8.00;79.01;101824.25;5027409;28;20026;-77
2023/05/16 02:11:46;;;;;;;7.70;1.20;;;;;;;7.98;79.42;101832.88;5026445;28;20033;-77
2023/05/16 02:14:11;;;;;;;6.13;1.10;;;;;;;7.95;79.12;101830.28;5026482;28;20025;-77
2023/05/16 02:16:37;;;;;;;6.72;1.10;;;;;;;7.92;78.91;101833.75;5026970;28;20076;-77
2023/05/16 02:19:02;;;;;;;7.25;1.58;;;;;;;7.89;79.09;101832.03;5028437;28;20033;-77
2023/05/16 02:21:28;;;;;;;4.80;1.10;;;;;;;7.86;78.67;101832.00;5026132;28;20112;-77
2023/05/16 02:23:53;;;;;;;7.85;1.30;;;;;;;7.84;79.17;101836.31;5029442;28;20424;-77
2023/05/16 02:26:18;;;;;;;7.07;1.30;;;;;;;7.79;79.35;101839.78;5027899;28;20388;-77
2023/05/16 02:28:43;;;;;;;7.13;1.10;;;;;;;7.77;79.11;101833.72;5026061;28;20032;-77
2023/05/16 02:31:09;;;;;;;7.60;1.00;;;;;;;7.74;79.31;101838.03;5026730;28;20033;-77
2023/05/16 02:33:34;;;;;;;6.78;1.27;;;;;;;7.73;78.85;101840.63;5026866;28;20041;-77
2023/05/16 02:36:00;;;;;;;8.63;1.35;;;;;;;7.72;78.90;101836.31;5029234;28;20044;-77
2023/05/16 02:38:25;;;;;;;7.28;1.05;;;;;;;7.73;79.04;101841.47;5030494;28;20084;-82
2023/05/16 02:40:50;;;;;;;10.38;1.23;;;;;;;7.70;79.00;101846.66;5027535;28;20037;-78
2023/05/16 02:43:15;;;;;;;6.50;1.10;;;;;;;7.68;79.05;101852.69;5027217;28;20091;-78
2023/05/16 02:45:41;;;;;;;7.38;1.00;;;;;;;7.63;79.32;101850.09;5027852;28;20087;-77
2023/05/16 02:48:06;;;;;;;6.20;1.40;;;;;;;7.59;79.08;101853.53;5025728;28;20404;-77
2023/05/16 02:50:33;;;;;;;5.80;1.20;;;;;;;7.56;79.36;101849.22;5027225;28;20072;-78
2023/05/16 02:53:01;;;;;;;5.40;0.88;;;;;;;7.53;79.57;101848.31;5029443;28;20029;-77
2023/05/16 02:55:27;;;;;;;7.25;1.23;;;;;;;7.55;79.68;101870.78;5029986;28;20071;-77
2023/05/16 02:57:52;;;;;;;6.45;1.10;;;;;;;7.56;79.56;101875.13;5032990;28;20428;-77
2023/05/16 03:00:18;;;;;;;7.13;1.23;;;;;;;7.56;79.48;101866.47;5034615;28;20413;-78
2023/05/16 03:02:44;;;;;;;8.10;1.00;;;;;;;7.55;79.75;101868.19;5034777;28;20040;-77
2023/05/16 03:05:10;;;;;;;6.00;1.20;;;;;;;7.55;79.75;101873.38;5034283;28;20052;-77
2023/05/16 03:07:36;;;;;;;5.22;0.93;;;;;;;7.57;79.32;101870.78;5036625;28;20034;-78
2023/05/16 03:10:01;;;;;;;5.07;0.95;;;;;;;7.58;79.84;101877.69;5034612;28;20036;-77
2023/05/16 03:12:26;;;;;;;6.43;0.93;;;;;;;7.59;79.57;101879.44;5034854;28;20030;-77
2023/05/16 03:14:52;;;;;;;5.93;1.25;;;;;;;7.58;79.33;101876.00;5034672;28;20037;-77
2023/05/16 03:17:17;;;;;;;5.97;1.10;;;;;;;7.56;79.63;101875.13;5034646;28;20052;-77
2023/05/16 03:19:42;;;;;;;5.25;0.90;;;;;;;7.56;79.56;101885.47;5034593;28;20034;-78
2023/05/16 03:22:08;;;;;;;5.25;1.15;;;;;;;7.53;79.55;101874.22;5033547;28;20053;-77
2023/05/16 03:24:33;;;;;;;5.72;1.00;;;;;;;7.50;79.92;101884.59;5031778;28;20064;-77
2023/05/16 03:26:59;;;;;;;6.25;1.00;;;;;;;7.49;79.91;101888.03;5031617;28;20033;-77
2023/05/16 03:29:25;;;;;;;5.00;0.90;;;;;;;7.47;79.92;101887.16;5029447;28;20120;-77
2023/05/16 03:31:51;;;;;;;6.38;1.00;;;;;;;7.44;79.86;101886.28;5030580;28;20105;-77
2023/05/16 03:34:16;;;;;;;5.15;1.00;;;;;;;7.43;79.92;101884.56;5030515;28;20026;-77
2023/05/16 03:36:41;;;;;;;5.53;1.00;;;;;;;7.40;79.67;101894.03;5029777;28;20717;-77
2023/05/16 03:39:07;;;;;;;4.93;1.10;;;;;;;7.39;79.61;101892.31;5028775;28;20043;-77
2023/05/16 03:41:33;;;;;;;3.85;1.08;;;;;;;7.37;79.72;101894.03;5028764;28;20033;-77
2023/05/16 03:43:59;;;;;;;8.30;1.10;;;;;;;7.34;80.02;101897.47;5029807;28;20534;-77
2023/05/16 03:46:24;;;;;;;3.35;0.90;;;;;;;7.33;80.08;101902.63;5030410;28;20029;-77
2023/05/16 03:48:49;;;;;;;3.70;1.00;;;;;;;7.32;80.16;101900.88;5028835;28;20109;-77
2023/05/16 03:51:15;;;;;;;6.95;1.30;;;;;;;7.29;80.00;101902.59;5028979;28;20497;-77
2023/05/16 03:53:40;;;;;;;7.65;1.40;;;;;;;7.29;80.12;101905.19;5028777;28;20111;-77
2023/05/16 03:56:06;;;;;;;5.80;1.10;;;;;;;7.25;79.95;101906.06;5028192;28;20036;-77
2023/05/16 03:58:32;;;;;;;4.25;1.10;;;;;;;7.22;80.00;101905.16;5028352;28;20072;-77
2023/05/16 04:00:58;;;;;;;7.43;1.20;;;;;;;7.18;79.95;101909.44;5033283;28;20021;-77
2023/05/16 04:03:27;;;;;;;5.03;1.10;;;;;;;7.16;80.29;101905.13;5032371;28;20040;-77
2023/05/16 04:05:53;;;;;;;4.45;0.98;;;;;;;7.14;80.30;101907.69;5031371;28;20488;-77
2023/05/16 04:08:18;;;;;;;4.97;1.00;;;;;;;7.14;80.23;101921.53;5032339;28;20017;-77
2023/05/16 04:10:44;;;;;;;7.25;1.20;;;;;;;7.13;80.10;101921.50;5032634;28;20025;-77
2023/05/16 04:13:09;;;;;;;6.00;1.05;;;;;;;7.12;80.30;101920.63;5031804;28;20051;-77
2023/05/16 04:15:34;;;;;;;7.15;1.25;;;;;;;7.12;80.40;101920.63;5032089;28;20056;-77
2023/05/16 04:18:00;;;;;;;7.43;1.20;;;;;;;7.07;80.70;101921.47;5031137;28;20128;-77
2023/05/16 04:20:25;;;;;;;5.75;1.17;;;;;;;7.05;80.66;101924.03;5032781;28;20021;-77
2023/05/16 04:22:50;;;;;;;3.97;0.98;;;;;;;7.04;80.98;101922.28;5032484;28;20075;-77
2023/05/16 04:25:16;;;;;;;7.63;1.13;;;;;;;7.06;80.64;101924.91;5032470;28;20055;-78
2023/05/16 04:27:41;;;;;;;5.97;1.48;;;;;;;7.06;81.07;101925.75;5031356;28;20504;-77
2023/05/16 04:30:08;;;;;;;4.97;1.13;;;;;;;7.07;80.71;101926.66;5029965;28;20131;-77
2023/05/16 04:32:35;;;;;;;5.35;1.23;;;;;;;7.08;80.55;101934.41;5030290;28;20435;-77
2023/05/16 04:35:01;;;;;;;6.85;1.30;;;;;;;7.10;80.85;101937.88;5031706;28;20025;-78
2023/05/16 04:37:26;;;;;;;7.70;1.40;;;;;;;7.12;80.80;101936.16;5032861;28;20505;-82
2023/05/16 04:39:53;;;;;;;5.25;1.83;;;;;;;7.14;80.92;101943.94;5031722;28;20388;-77
2023/05/16 04:42:18;;;;;;;9.05;1.60;;;;;;;7.17;80.63;101953.44;5031025;28;20026;-77
2023/05/16 04:44:43;;;;;;;10.77;1.25;;;;;;;7.16;80.60;101949.13;5029745;28;20031;-78
2023/05/16 04:47:09;;;;;;;7.18;1.30;;;;;;;7.19;80.49;101955.19;5030766;28;20033;-77
2023/05/16 04:49:34;;;;;;;5.45;1.38;;;;;;;7.21;80.59;101958.66;5031185;28;20538;-77
2023/05/16 04:52:00;;;;;;;3.30;0.90;;;;;;;7.25;80.28;101956.94;5031578;28;20048;-77
2023/05/16 04:54:25;;;;;;;5.50;1.20;;;;;;;7.25;80.53;101956.94;5032226;28;20079;-77
2023/05/16 04:56:51;;;;;;;4.47;1.35;;;;;;;7.26;80.43;101954.34;5032271;28;20072;-77
2023/05/16 04:59:16;;;;;;;7.53;1.80;;;;;;;7.27;80.56;101960.41;5032136;28;20112;-77
2023/05/16 05:01:41;;;;;;;5.18;1.27;;;;;;;7.31;80.33;101962.16;5031010;28;20083;-77
2023/05/16 05:04:07;;;;;;;8.32;1.30;;;;;;;7.32;80.41;101963.00;5030040;28;20174;-77
2023/05/16 05:06:32;;;;;;;9.27;1.45;;;;;;;7.36;80.35;101962.19;5031100;28;20041;-77
2023/05/16 05:08:57;;;;;;;6.25;1.33;;;;;;;7.39;80.51;101964.78;5032284;28;20055;-77
2023/05/16 05:11:23;;;;;;;6.97;1.20;;;;;;;7.41;80.64;101965.66;5032183;28;20450;-77
2023/05/16 05:13:48;;;;;;;6.78;1.40;;;;;;;7.46;80.03;101960.50;5029830;28;20095;-77
2023/05/16 05:16:13;;;;;;;4.55;1.00;;;;;;;7.49;80.10;101976.06;5032324;28;20104;-77
2023/05/16 05:18:38;;;;;;;3.97;1.20;;;;;;;7.52;80.36;101963.13;5032511;28;20396;-77
2023/05/16 05:21:04;;;;;;;11.10;1.50;;;;;;;7.58;80.04;101970.94;5030349;28;20477;-77
2023/05/16 05:23:29;;;;;;;7.95;1.83;;;;;;;7.62;79.98;101972.69;5028531;28;20079;-77
2023/05/16 05:25:55;;;;;;;7.28;1.00;;;;;;;7.67;80.42;101977.88;5030127;28;20037;-77
2023/05/16 05:28:20;;;;;;;3.85;1.20;;;;;;;7.72;80.04;101968.41;5030184;28;20029;-77
2023/05/16 05:30:47;;;;;;;7.32;1.30;;;;;;;7.78;80.20;101977.94;5028710;28;20029;-77
2023/05/16 05:33:15;;;;;;;4.82;1.40;;;;;;;7.81;79.70;101976.22;5030881;28;20088;-77
2023/05/16 05:35:40;;;;;;;6.50;1.27;;;;;;;7.87;78.86;101983.13;5030455;28;20476;-77
2023/05/16 05:38:06;;;;;;;5.82;1.15;;;;;;;7.92;79.68;101978.00;5030428;28;20041;-77
2023/05/16 05:40:31;;;;;;;5.65;1.20;;;;;;;7.97;79.56;101989.22;5031070;28;20112;-77
2023/05/16 05:42:56;;;;;;;7.18;1.35;;;;;;;8.01;78.72;101991.84;5031108;28;20158;-77
2023/05/16 05:45:22;;;;;;;4.97;1.20;;;;;;;8.07;79.07;101984.94;5029114;28;21027;-77
2023/05/16 05:47:47;;;;;;;3.35;1.20;;;;;;;8.12;78.74;101991.00;5026671;28;20035;-77
2023/05/16 05:50:14;;;;;;;7.18;1.38;;;;;;;8.16;78.76;101992.75;5020713;28;20048;-78
2023/05/16 05:52:39;;;;;;;7.97;1.30;;;;;;;8.22;78.61;101989.31;5022815;28;20123;-78
2023/05/16 05:55:05;;;;;;;7.20;1.30;;;;;;;8.28;78.50;101986.75;5023601;28;20063;-78
2023/05/16 05:57:31;;;;;;;6.38;1.30;;;;;;;8.31;78.11;101995.38;5024382;28;20029;-78
2023/05/16 05:59:56;;;;;;;7.10;1.42;;;;;;;8.35;78.00;101997.13;5023564;28;20064;-78
2023/05/16 06:02:21;;;;;;;7.28;1.17;;;;;;;8.41;77.64;102000.56;5022476;28;20064;-78
2023/05/16 06:04:46;;;;;;;7.65;1.40;;;;;;;8.45;77.33;102004.91;5022609;28;20034;-78
2023/05/16 06:07:14;;;;;;;5.38;1.40;;;;;;;8.52;77.37;102009.28;5025258;28;20076;-78
2023/05/16 06:09:39;;;;;;;4.78;1.13;;;;;;;8.58;75.65;102008.44;5022309;28;20477;-78
2023/05/16 06:12:05;;;;;;;5.35;1.05;;;;;;;8.61;76.27;102011.88;5020257;28;20092;-78
2023/05/16 06:14:31;;;;;;;7.30;1.05;;;;;;;8.65;75.53;102016.22;5023000;28;20067;-77
2023/05/16 06:16:57;;;;;;;4.18;1.00;;;;;;;8.71;75.67;102014.50;5022336;28;20095;-77
2023/05/16 06:19:22;;;;;;;4.75;1.13;;;;;;;8.76;75.10;102017.94;5021966;28;20037;-78
2023/05/16 06:21:47;;;;;;;5.68;1.20;;;;;;;8.79;75.95;102018.84;5022282;28;20104;-78
2023/05/16 06:24:13;;;;;;;7.18;1.20;;;;;;;8.79;75.26;102023.16;5024192;28;20029;-79
2023/05/16 06:26:38;;;;;;;5.35;1.10;;;;;;;8.81;75.22;102021.44;5018736;28;20033;-78
2023/05/16 06:29:03;;;;;;;6.00;1.00;;;;;;;8.83;74.84;102027.50;5019201;28;20108;-78
2023/05/16 06:31:28;;;;;;;6.35;1.30;;;;;;;8.86;74.89;102024.91;5019618;28;20025;-78
2023/05/16 06:33:54;;;;;;;6.90;1.10;;;;;;;8.91;73.91;102027.50;5024670;28;20037;-79
2023/05/16 06:36:19;;;;;;;2.95;0.93;;;;;;;8.92;74.84;102021.44;5025648;28;20415;-79
2023/05/16 06:38:45;;;;;;;8.75;1.20;;;;;;;9.00;74.80;102030.06;5026938;28;20045;-78
2023/05/16 06:41:10;;;;;;;4.78;1.08;;;;;;;9.02;74.01;102028.34;5027426;28;20439;-79
2023/05/16 06:43:35;;;;;;;5.68;1.10;;;;;;;8.99;74.56;102030.09;5028340;28;20139;-78
2023/05/16 06:46:00;;;;;;;3.72;0.90;;;;;;;8.99;74.10;102030.09;5026490;28;20041;-79
2023/05/16 06:48:26;;;;;;;5.43;1.08;;;;;;;9.04;75.65;102031.81;5026052;28;20051;-79
2023/05/16 06:50:51;;;;;;;5.68;1.10;;;;;;;9.14;74.11;102042.22;5023014;28;20167;-79
2023/05/16 06:53:17;;;;;;;4.65;1.33;;;;;;;9.18;73.70;102031.81;5024995;28;20119;-78
2023/05/16 06:55:43;;;;;;;6.07;1.20;;;;;;;9.26;74.16;102029.22;5027485;28;20262;-77
2023/05/16 06:58:08;;;;;;;6.38;1.10;;;;;;;9.33;73.95;102030.91;5027178;28;20033;-78
2023/05/16 07:00:34;;;;;;;6.50;1.10;;;;;;;9.38;72.17;102033.53;5026817;28;20041;-78
2023/05/16 07:02:59;;;;;;;5.07;0.98;;;;;;;9.42;73.14;102035.22;5027922;28;20036;-79
2023/05/16 07:05:24;;;;;;;6.55;1.13;;;;;;;9.48;72.45;102034.38;5024458;28;20120;-79
2023/05/16 07:07:50;;;;;;;6.43;1.08;;;;;;;9.52;71.12;102030.88;5026280;28;20079;-78
2023/05/16 07:10:15;;;;;;;5.70;1.00;;;;;;;9.56;70.52;102033.47;5025370;28;20148;-78
2023/05/16 07:12:42;;;;;;;4.53;1.10;;;;;;;9.60;72.38;102036.94;5026440;28;20041;-78
2023/05/16 07:15:07;;;;;;;5.07;0.80;;;;;;;9.63;71.05;102034.34;5027885;28;20476;-78
2023/05/16 07:17:33;;;;;;;4.95;0.90;;;;;;;9.63;70.86;102044.72;5026383;28;20431;-78
2023/05/16 07:19:58;;;;;;;4.47;1.02;;;;;;;9.68;72.39;102042.13;5026758;28;20151;-78
2023/05/16 07:22:23;;;;;;;5.25;0.90;;;;;;;9.72;70.37;102036.06;5026692;28;20052;-79
2023/05/16 07:24:49;;;;;;;7.25;1.30;;;;;;;9.75;69.76;102042.97;5027581;28;20029;-78
2023/05/16 07:27:14;;;;;;;6.30;1.00;;;;;;;9.77;68.25;102039.47;5026150;28;20033;-78
2023/05/16 07:29:40;;;;;;;4.13;0.90;;;;;;;9.79;66.57;102042.94;5024255;28;20029;-79
2023/05/16 07:32:05;;;;;;;6.05;1.48;;;;;;;9.84;67.55;102043.81;5025959;28;20055;-79
2023/05/16 07:34:31;;;;;;;5.70;0.88;;;;;;;9.88;68.56;102036.84;5026763;28;20048;-79
2023/05/16 07:36:56;;;;;;;4.07;0.70;;;;;;;9.94;69.31;102043.75;5027023;28;20037;-78
2023/05/16 07:39:21;;;;;;;3.40;1.00;;;;;;;9.95;67.93;102045.47;5027325;28;20136;-79
2023/05/16 07:41:46;;;;;;;7.85;1.00;;;;;;;9.94;68.34;102046.34;5027196;28;20041;-78
2023/05/16 07:44:12;;;;;;;4.90;0.90;;;;;;;9.94;66.93;102049.84;5025097;28;20033;-79
2023/05/16 07:46:37;;;;;;;4.13;0.80;;;;;;;9.94;66.69;102043.75;5027234;28;20087;-79
2023/05/16 07:49:02;;;;;;;2.13;0.70;;;;;;;9.98;67.30;102041.16;5025612;28;20025;-78
2023/05/16 07:51:28;;;;;;;3.60;0.95;;;;;;;10.05;69.09;102044.59;5026257;28;20640;-79
2023/05/16 07:53:53;;;;;;;6.75;1.00;;;;;;;10.11;67.87;102046.31;5025136;28;20044;-79
2023/05/16 07:56:18;;;;;;;3.85;0.98;;;;;;;10.17;69.00;102044.53;5025734;28;20036;-78
2023/05/16 07:58:45;;;;;;;3.33;0.88;;;;;;;10.28;67.14;102052.28;5026042;28;20204;-78
2023/05/16 08:01:10;;;;;;;5.60;1.10;;;;;;;10.34;67.74;102059.19;5026040;28;20116;-78
2023/05/16 08:03:36;;;;;;;4.25;0.80;;;;;;;10.35;65.83;102058.31;5026609;28;20607;-78
2023/05/16 08:06:01;;;;;;;3.80;0.80;;;;;;;10.39;66.93;102052.28;5027428;28;20044;-79
2023/05/16 08:08:26;;;;;;;3.75;0.80;;;;;;;10.50;68.01;102053.94;5027112;28;20489;-80
2023/05/16 08:10:51;;;;;;;3.85;0.80;;;;;;;10.59;65.19;102059.09;5025580;28;20021;-79
2023/05/16 08:13:17;;;;;;;5.05;1.25;;;;;;;10.62;64.94;102069.47;5027159;28;20112;-79
2023/05/16 08:15:42;;;;;;;5.18;0.60;;;;;;;10.66;64.85;102060.78;5027541;28;20397;-77
2023/05/16 08:18:13;;;;;;;2.90;0.98;;;;;;;10.69;64.69;102059.88;5026932;28;20037;-77
2023/05/16 08:20:38;;;;;;;4.95;0.70;;;;;;;10.76;65.44;102057.22;5026234;28;20068;-78
2023/05/16 08:23:04;;;;;;;3.70;0.80;;;;;;;10.77;65.72;102064.16;5023753;28;20480;-78
2023/05/16 08:25:29;;;;;;;3.35;0.80;;;;;;;10.70;65.25;102072.91;5021820;28;20376;-78
2023/05/16 08:27:55;;;;;;;2.88;0.70;;;;;;;10.62;65.48;102072.94;5021903;28;21473;-78
2023/05/16 08:30:20;;;;;;;4.63;0.88;;;;;;;10.61;64.85;102062.53;5022646;28;20039;-78
2023/05/16 08:32:45;;;;;;;4.35;0.88;;;;;;;10.65;64.30;102059.03;5023607;28;20029;-78
2023/05/16 08:35:11;;;;;;;4.28;0.80;;;;;;;10.70;63.02;102059.00;5024066;28;20030;-78
2023/05/16 08:37:37;;;;;;;3.55;0.80;;;;;;;10.78;63.20;102068.50;5025014;28;20108;-78
2023/05/16 08:40:07;;;;;;;5.00;1.02;;;;;;;10.92;64.07;102062.34;5023996;28;20112;-78
2023/05/16 08:42:33;;;;;;;2.92;0.70;;;;;;;11.10;63.52;102066.53;5024299;28;20056;-79
2023/05/16 08:44:58;;;;;;;2.90;0.70;;;;;;;11.24;64.78;102059.47;5025348;28;20472;-79
2023/05/16 08:47:25;;;;;;;5.55;1.05;;;;;;;11.27;60.56;102052.50;5024704;28;20043;-78
2023/05/16 08:49:54;;;;;;;3.22;0.60;;;;;;;11.26;63.40;102069.00;5022078;28;20359;-78
2023/05/16 08:52:22;;;;;;;3.92;0.60;;;;;;;11.18;63.36;102062.13;5037208;28;20046;-78
2023/05/16 08:54:50;;;;;;;4.60;0.80;;;;;;;11.05;64.04;102058.75;5020925;28;20038;-79
2023/05/16 08:57:16;;;;;;;2.00;0.60;;;;;;;10.97;63.34;102060.56;5021455;28;20034;-79
2023/05/16 08:59:43;;;;;;;1.63;0.60;;;;;;;10.92;62.82;102062.34;5024523;28;20049;-78
2023/05/16 09:02:09;;;;;;;3.33;0.68;;;;;;;10.96;64.73;102058.81;5020866;28;20041;-78
2023/05/16 09:04:36;;;;;;;3.67;0.82;;;;;;;11.01;64.90;102057.06;5018239;28;20037;-78
2023/05/16 09:07:01;;;;;;;2.63;0.52;;;;;;;11.13;64.94;102056.09;5015515;28;20033;-79
2023/05/16 09:09:26;;;;;;;2.90;0.75;;;;;;;11.23;61.75;102059.47;5021080;28;20041;-78
2023/05/16 09:11:52;;;;;;;2.90;0.65;;;;;;;11.35;63.05;102054.16;5024079;28;20492;-78
2023/05/16 09:14:17;;;;;;;4.07;0.50;;;;;;;11.48;62.07;102051.41;5025189;28;20078;-77
2023/05/16 09:16:44;;;;;;;2.95;0.68;;;;;;;11.62;60.89;102053.91;5023584;28;20376;-78
2023/05/16 09:19:11;;;;;;;3.95;0.55;;;;;;;11.80;60.71;102051.09;5020134;28;20493;-79
2023/05/16 09:21:38;;;;;;;2.88;0.60;;;;;;;11.89;56.43;102047.50;5022928;28;20037;-78
2023/05/16 09:24:05;;;;;;;3.30;0.77;;;;;;;11.90;58.72;102058.78;5022560;28;20459;-78
2023/05/16 09:26:37;;;;;;;2.60;0.60;;;;;;;11.90;58.84;102054.44;5024072;28;20042;-79
2023/05/16 09:29:10;;;;;;;4.70;0.70;;;;;;;11.88;60.77;102051.00;5022686;28;20044;-78
2023/05/16 09:31:37;;;;;;;4.72;0.70;;;;;;;11.83;60.49;102050.19;5025413;28;20075;-78
2023/05/16 09:34:06;;;;;;;3.58;0.70;;;;;;;11.89;62.76;102047.50;5024173;28;20473;-78
2023/05/16 09:36:32;;;;;;;2.55;0.70;;;;;;;11.97;59.20;102053.47;5020728;28;20056;-79
2023/05/16 09:38:57;;;;;;;2.60;0.55;;;;;;;12.05;59.92;102048.19;5024088;28;20082;-79
2023/05/16 09:41:22;;;;;;;1.85;0.68;;;;;;;12.12;59.26;102054.22;5016349;28;20036;-80
2023/05/16 09:43:47;;;;;;;4.03;0.80;;;;;;;12.16;59.30;102061.13;5023661;28;20095;-78
2023/05/16 09:46:18;;;;;;;3.05;0.80;;;;;;;12.18;55.76;102053.28;5020466;28;20116;-78
2023/05/16 09:48:45;;;;;;;2.70;0.60;;;;;;;12.18;59.35;102056.75;5016681;28;20033;-78
2023/05/16 09:51:11;;;;;;;5.20;0.70;;;;;;;12.14;58.62;102065.47;5018985;28;20552;-77
2023/05/16 09:53:37;;;;;;;5.35;0.70;;;;;;;12.07;58.27;102062.09;5021021;28;20057;-79
2023/05/16 09:56:05;;;;;;;3.03;0.63;;;;;;;12.03;60.16;102056.94;5018179;28;20473;-80
2023/05/16 09:58:32;;;;;;;1.95;0.50;;;;;;;11.99;59.53;102064.78;5016602;28;20033;-78
2023/05/16 10:00:58;;;;;;;3.72;0.60;;;;;;;11.95;58.41;102070.91;5020951;28;20443;-78
2023/05/16 10:03:25;;;;;;;1.27;0.50;;;;;;;11.88;58.91;102064.03;5018821;28;20104;-79
2023/05/16 10:05:51;;;;;;;2.72;0.50;;;;;;;11.88;59.93;102061.44;5018962;28;20100;-80
2023/05/16 10:08:20;;;;;;;2.90;0.60;;;;;;;11.92;59.79;102063.13;5020859;28;20025;-81
2023/05/16 10:10:48;;;;;;;4.40;0.60;;;;;;;11.93;59.91;102064.84;5020080;28;20365;-79
2023/05/16 10:13:14;;;;;;;3.22;0.60;;;;;;;11.93;57.00;102059.63;5022088;28;20029;-80
2023/05/16 10:15:40;;;;;;;2.05;0.50;;;;;;;12.02;60.74;102052.59;5021169;28;20035;-79
2023/05/16 10:18:10;;;;;;;3.70;0.70;;;;;;;12.14;57.55;102055.03;5021360;28;20727;-78
2023/05/16 10:20:37;;;;;;;4.15;0.70;;;;;;;12.29;59.05;102052.25;5020228;28;20389;-78
2023/05/16 10:23:03;;;;;;;3.00;0.65;;;;;;;12.44;55.87;102039.88;5019876;28;20080;-78
2023/05/16 10:25:35;;;;;;;4.13;0.70;;;;;;;12.58;57.53;102042.28;5019104;28;20025;-78
2023/05/16 10:28:02;;;;;;;1.58;0.55;;;;;;;12.63;56.45;102044.84;5020758;28;20112;-78
2023/05/16 10:30:29;;;;;;;3.28;0.80;;;;;;;12.62;54.90;102043.13;5019743;28;20033;-78
2023/05/16 10:32:55;;;;;;;3.30;0.60;;;;;;;12.58;55.31;102042.28;5020786;28;20472;-77
2023/05/16 10:35:21;;;;;;;3.15;0.70;;;;;;;12.52;55.71;102047.59;5019398;28;20192;-77
2023/05/16 10:37:47;;;;;;;2.15;0.70;;;;;;;12.48;56.06;102053.75;5021467;28;20111;-77
2023/05/16 10:40:13;;;;;;;3.75;0.70;;;;;;;12.50;56.77;102042.38;5020230;28;20218;-77
2023/05/16 10:42:42;;;;;;;1.08;0.50;;;;;;;12.57;54.15;102049.25;5019112;28;20543;-77
2023/05/16 10:45:16;;;;;;;3.92;0.52;;;;;;;12.67;56.08;102039.53;5019969;28;20033;-77
2023/05/16 10:47:53;;;;;;;4.82;0.82;;;;;;;12.74;56.02;102040.31;5020453;28;20110;-77
2023/05/16 10:50:32;;;;;;;2.75;0.50;;;;;;;12.77;50.94;102045.50;5020452;28;20495;-77
2023/05/16 10:53:20;;;;;;;2.05;0.50;;;;;;;12.87;54.65;102039.22;5017931;28;20053;-76
2023/05/16 10:55:57;;;;;;;4.03;0.60;;;;;;;13.00;52.97;102047.72;5018516;28;20033;-78
2023/05/16 10:58:38;;;;;;;3.28;0.60;;;;;;;13.07;55.03;102040.63;5022769;28;20069;-77
2023/05/16 11:01:30;;;;;;;2.97;0.50;;;;;;;13.11;53.76;102044.94;5017964;28;20030;-81
2023/05/16 11:03:55;;;;;;;3.50;0.60;;;;;;;13.05;53.09;102042.41;5022395;28;20017;-78
2023/05/16 11:06:21;;;;;;;4.03;0.80;;;;;;;12.98;53.93;102043.44;5021236;28;20504;-77
2023/05/16 11:09:05;;;;;;;2.30;0.40;;;;;;;12.99;54.65;102039.88;5021030;28;20037;-77
2023/05/16 11:11:53;;;;;;;3.83;0.70;;;;;;;13.07;55.61;102035.41;5019340;28;20053;-78
2023/05/16 11:14:24;;;;;;;2.85;0.60;;;;;;;13.13;54.07;102043.16;5019655;28;20041;-77
2023/05/16 11:16:51;;;;;;;2.33;0.50;;;;;;;13.25;54.95;102041.22;5019231;28;20112;-78
2023/05/16 11:19:39;;;;;;;3.47;0.60;;;;;;;13.32;53.30;102040.22;5022191;28;20485;-78
2023/05/16 11:22:10;;;;;;;3.30;0.68;;;;;;;13.35;54.28;102042.75;5021586;28;20025;-78
2023/05/16 11:24:38;;;;;;;2.53;0.57;;;;;;;13.38;50.62;102045.31;5025201;28;20041;-78
2023/05/16 11:27:04;;;;;;;1.80;0.60;;;;;;;13.35;50.92;102053.22;5025282;28;20419;-79
2023/05/16 11:29:34;;;;;;;1.33;0.43;;;;;;;13.30;52.59;102050.69;5025607;28;20083;-78
2023/05/16 11:32:01;;;;;;;3.95;0.50;;;;;;;13.26;50.58;102045.56;5022852;28;20041;-79